Washington, District of Columbia
Traffic Map
Current Weather Conditions
Washington, District of Columbia
Scattered Clouds
Scattered Clouds
22°
Feels Like: 22°
Wind Chill: 22° Ceiling: Unl
Heat Index: 22° Visibility: 10mi
Dew Point: 13° Wind: 8mph
Humidity: 59% Direction: 160° (SSE)
Pressure: 30.38in Gusts: 0mph
Raw Report DataKDCA 241452Z 16007KT 10SM SCT250 22/13 A3038 RMK AO2 SLP287 T02170133 58008 $
Traffic Incident Summary
Active as of:
Severity:
Category:
InformationThere was an issue retrieving the traffic information for this location. Please try a different location or try again shortly.
Advertisements
Track Severe Weather on mobile